Archiv-/Tagesdaten

--Timestamp---	Temp	Chill	HIndex	Humid	Dewpt	 Wind 	HiWind	WindDir	Rain 	Barom	Solar	 ET  	 UV 
--------------	----	-----	------	-----	-----	------	------	-------	-----	-----	-----	-----	----
20110228 00:00	2.8	2.8	2.8	90	1.3	0	2	270	0.0	1017.9	0	0.000	0.0
20110228 00:05	2.7	2.7	2.7	90	1.2	0	3	270	0.0	1017.9	0	0.000	0.0
20110228 00:10	2.7	2.7	2.7	90	1.2	0	2	270	0.0	1017.9	0	0.000	0.0
20110228 00:15	2.7	2.7	2.7	90	1.2	0	0	-100000	0.0	1017.9	0	0.000	0.0
20110228 00:20	2.7	2.7	2.7	90	1.2	0	0	-100000	0.0	1018.0	0	0.000	0.0
20110228 00:25	2.7	2.7	2.7	90	1.2	0	0	-100000	0.0	1018.0	0	0.000	0.0
20110228 00:30	2.6	2.6	2.6	90	1.1	0	0	-100000	0.0	1018.0	0	0.000	0.0
20110228 00:35	2.6	2.6	2.6	90	1.1	0	0	-100000	0.0	1018.0	0	0.000	0.0
20110228 00:40	2.6	2.6	2.6	90	1.1	0	0	-100000	0.0	1018.1	0	0.000	0.0
20110228 00:45	2.6	2.6	2.6	91	1.2	0	0	-100000	0.0	1018.1	0	0.000	0.0
20110228 00:50	2.6	2.6	2.6	91	1.2	0	0	-100000	0.0	1018.1	0	0.000	0.0
20110228 00:55	2.6	2.6	2.6	91	1.2	0	0	-100000	0.0	1018.1	0	0.000	0.0
20110228 01:00	2.6	2.6	2.6	91	1.2	0	0	-100000	0.0	1018.1	0	0.000	0.0
20110228 01:05	2.6	2.6	2.6	91	1.3	0	0	-100000	0.0	1018.0	0	0.000	0.0
20110228 01:10	2.7	2.7	2.7	91	1.4	0	0	-100000	0.0	1018.0	0	0.000	0.0
20110228 01:15	2.7	2.7	2.7	91	1.4	0	0	-100000	0.0	1018.0	0	0.000	0.0
20110228 01:20	2.8	2.8	2.8	91	1.5	0	0	-100000	0.0	1018.0	0	0.000	0.0
20110228 01:25	2.8	2.8	2.8	91	1.5	0	0	-100000	0.0	1018.0	0	0.000	0.0
20110228 01:30	2.6	2.6	2.6	90	1.1	0	0	-100000	0.0	1018.0	0	0.000	0.0
20110228 01:35	2.5	2.5	2.5	90	1.0	0	5	270	0.0	1018.0	0	0.000	0.0
20110228 01:40	2.3	2.3	2.3	90	0.9	5	6	270	0.0	1018.1	0	0.000	0.0
20110228 01:45	2.2	2.2	2.2	90	0.8	5	8	45	0.0	1018.1	0	0.000	0.0
20110228 01:50	2.2	2.2	2.2	91	0.9	2	8	45	0.0	1018.2	0	0.000	0.0
20110228 01:55	2.0	2.0	2.0	91	0.7	3	8	45	0.0	1018.2	0	0.000	0.0
20110228 02:00	1.8	1.8	1.8	91	0.5	3	6	45	0.0	1018.2	0	0.000	0.0
20110228 02:05	1.7	1.7	1.7	91	0.4	5	8	45	0.0	1018.2	0	0.000	0.0
20110228 02:10	1.5	1.5	1.5	91	0.2	5	6	45	0.0	1018.2	0	0.000	0.0
20110228 02:15	1.3	1.3	1.3	91	0.0	5	6	45	0.0	1018.2	0	0.000	0.0
20110228 02:20	1.3	1.3	1.3	92	0.2	5	8	45	0.0	1018.3	0	0.000	0.0
20110228 02:25	1.3	1.3	1.3	92	0.2	5	8	68	0.0	1018.2	0	0.000	0.0
20110228 02:30	1.2	1.2	1.2	92	0.1	3	6	68	0.0	1018.2	0	0.000	0.0
20110228 02:35	1.2	1.2	1.2	92	0.1	3	6	68	0.0	1018.2	0	0.000	0.0
20110228 02:40	1.2	1.2	1.2	92	0.0	2	5	68	0.0	1018.2	0	0.000	0.0
20110228 02:45	1.2	1.2	1.2	92	0.0	2	5	68	0.0	1018.2	0	0.000	0.0
20110228 02:50	1.1	1.1	1.1	92	-0.0	3	5	68	0.0	1018.3	0	0.000	0.0
20110228 02:55	1.1	1.1	1.1	92	-0.1	3	6	68	0.0	1018.2	0	0.000	0.0
20110228 03:00	1.1	1.1	1.1	92	-0.1	3	5	68	0.0	1018.3	0	0.000	0.0
20110228 03:05	1.0	1.0	1.0	93	-0.0	2	5	68	0.0	1018.4	0	0.000	0.0
20110228 03:10	1.1	1.1	1.1	93	0.1	0	3	68	0.0	1018.4	0	0.000	0.0
20110228 03:15	1.1	1.1	1.1	93	0.1	2	5	68	0.0	1018.4	0	0.000	0.0
20110228 03:20	1.0	1.0	1.0	93	-0.0	3	5	68	0.0	1018.5	0	0.000	0.0
20110228 03:25	1.0	1.0	1.0	93	-0.0	2	5	68	0.0	1018.5	0	0.000	0.0
20110228 03:30	1.0	1.0	1.0	93	-0.0	3	6	68	0.0	1018.5	0	0.000	0.0
20110228 03:35	1.0	1.0	1.0	99	0.9	2	6	68	0.0	1018.5	0	0.000	0.0
20110228 03:40	1.0	1.0	1.0	93	-0.0	2	5	68	0.0	1018.5	0	0.000	0.0
20110228 03:45	0.9	0.9	0.9	93	-0.1	3	8	68	0.0	1018.5	0	0.000	0.0
20110228 03:50	0.9	0.9	0.9	93	-0.1	5	8	90	0.0	1018.6	0	0.000	0.0
20110228 03:55	0.9	0.9	0.9	93	-0.1	3	6	68	0.0	1018.6	0	0.000	0.0
20110228 04:00	0.9	0.9	0.9	93	-0.1	5	8	68	0.0	1018.6	0	0.000	0.0
20110228 04:05	0.8	0.8	0.8	93	-0.2	5	8	90	0.0	1018.6	0	0.000	0.0
20110228 04:10	0.8	0.8	0.8	93	-0.2	5	10	68	0.0	1018.6	-100000	0.000	0.0
20110228 04:15	0.8	0.8	0.8	93	-0.2	5	10	90	0.0	1018.6	-100000	0.000	0.0
20110228 04:20	0.8	0.8	0.8	93	-0.2	3	6	90	0.0	1018.7	-100000	0.000	0.0
20110228 04:25	0.8	0.8	0.8	93	-0.2	5	8	90	0.0	1018.8	0	0.000	0.0
20110228 04:30	0.8	0.8	0.8	93	-0.2	5	10	90	0.0	1018.8	0	0.000	0.0
20110228 04:35	0.7	0.7	0.7	93	-0.3	5	10	68	0.0	1018.9	0	0.000	0.0
20110228 04:40	0.7	0.7	0.7	93	-0.3	5	8	68	0.0	1019.0	0	0.000	0.0
20110228 04:45	0.7	-2.0	0.7	93	-0.3	8	14	68	0.0	1019.0	0	0.000	0.0
20110228 04:50	0.7	0.7	0.7	93	-0.3	3	6	68	0.0	1019.1	0	0.000	0.0
20110228 04:55	0.7	0.7	0.7	93	-0.3	3	8	68	0.0	1019.1	0	0.000	0.0
20110228 05:00	0.7	-1.4	0.7	93	-0.3	6	11	68	0.0	1019.1	0	0.000	0.0
20110228 05:05	0.6	0.6	0.6	93	-0.4	3	8	90	0.0	1019.3	0	0.000	0.0
20110228 05:10	0.6	0.6	0.6	94	-0.2	5	8	68	0.0	1019.4	0	0.000	0.0
20110228 05:15	0.6	0.6	0.6	94	-0.2	5	6	68	0.0	1019.4	0	0.000	0.0
20110228 05:20	0.6	0.6	0.6	94	-0.2	5	8	68	0.0	1019.4	0	0.000	0.0
20110228 05:25	0.6	0.6	0.6	94	-0.3	5	8	68	0.0	1019.4	0	0.000	0.0
20110228 05:30	0.6	0.6	0.6	94	-0.3	5	8	45	0.0	1019.5	0	0.000	0.0
20110228 05:35	0.6	0.6	0.6	93	-0.4	5	11	45	0.0	1019.5	0	0.000	0.0
20110228 05:40	0.6	-1.5	0.6	93	-0.4	6	10	68	0.0	1019.5	0	0.000	0.0
20110228 05:45	0.5	-1.6	0.5	94	-0.4	6	10	68	0.0	1019.6	0	0.000	0.0
20110228 05:50	0.5	-1.6	0.5	94	-0.4	6	13	68	0.0	1019.8	0	0.000	0.0
20110228 05:55	0.5	-1.6	0.5	94	-0.4	6	11	45	0.0	1019.7	0	0.000	0.0
20110228 06:00	0.4	-2.2	0.4	94	-0.4	8	13	68	0.0	1019.8	0	0.000	0.0
20110228 06:05	0.4	-1.7	0.4	94	-0.4	6	14	68	0.0	1019.8	0	0.000	0.0
20110228 06:10	0.3	-3.6	0.3	94	-0.5	13	19	68	0.0	1019.8	0	0.000	0.0
20110228 06:15	0.3	-3.3	0.3	94	-0.6	11	18	68	0.0	1019.9	0	0.000	0.0
20110228 06:20	0.3	-1.9	0.3	94	-0.6	6	16	68	0.0	1019.9	0	0.000	0.0
20110228 06:25	0.3	-2.4	0.3	94	-0.6	8	14	68	0.0	1019.9	0	0.000	0.0
20110228 06:30	0.3	-1.9	0.3	94	-0.6	6	13	68	0.0	1020.0	0	0.000	0.0
20110228 06:35	0.2	0.2	0.2	94	-0.6	5	10	68	0.0	1020.2	0	0.000	0.0
20110228 06:40	0.2	-2.0	0.2	94	-0.7	6	11	90	0.0	1020.2	0	0.000	0.0
20110228 06:45	0.2	-2.0	0.2	94	-0.7	6	11	68	0.0	1020.3	0	0.000	0.0
20110228 06:50	0.1	0.1	0.1	94	-0.7	5	8	45	0.0	1020.3	0	0.000	0.0
20110228 06:55	0.1	0.1	0.1	94	-0.8	3	8	68	0.0	1020.3	0	0.000	0.0
20110228 07:00	0.1	-2.1	0.1	94	-0.8	6	11	68	0.0	1020.3	0	0.000	0.0
20110228 07:05	0.1	-2.1	0.1	94	-0.8	6	11	68	0.0	1020.4	0	0.000	0.0
20110228 07:10	0.0	-2.2	0.0	100	-0.0	6	10	68	0.0	1020.5	0	0.000	0.0
20110228 07:15	0.0	-2.2	0.0	94	-0.8	6	11	68	0.0	1020.5	0	0.000	0.0
20110228 07:20	0.0	-2.2	0.0	94	-0.8	6	11	68	0.0	1020.5	4	0.000	0.0
20110228 07:25	-0.1	-2.2	-0.1	94	-0.9	6	10	68	0.0	1020.6	7	0.000	0.0
20110228 07:30	-0.1	-0.1	-0.1	94	-0.9	5	10	68	0.0	1020.5	18	0.000	0.0
20110228 07:35	0.1	0.1	0.1	94	-0.8	5	8	68	0.0	1020.7	26	0.000	0.0
20110228 07:40	0.1	-2.1	0.1	94	-0.8	6	10	68	0.0	1020.7	29	0.000	0.0
20110228 07:45	0.1	-2.1	0.1	94	-0.7	6	14	68	0.0	1020.7	34	0.000	0.0
20110228 07:50	0.1	-2.6	0.1	94	-0.7	8	14	68	0.0	1020.8	27	0.000	0.0
20110228 07:55	0.1	-2.1	0.1	94	-0.8	6	11	68	0.0	1020.9	32	0.000	0.0
20110228 08:00	0.1	-2.1	0.1	94	-0.7	6	11	68	0.0	1020.9	42	0.000	0.0
20110228 08:05	0.1	-2.7	0.1	94	-0.8	8	11	68	0.0	1020.9	43	0.000	0.0
20110228 08:10	0.1	0.1	0.1	94	-0.7	5	11	68	0.0	1020.9	-100000	0.000	0.0
20110228 08:15	0.2	0.2	0.2	94	-0.7	5	10	68	0.0	1020.9	49	0.000	0.0
20110228 08:20	0.2	0.2	0.2	94	-0.6	5	8	68	0.0	1021.0	57	0.000	0.0
20110228 08:25	0.3	0.3	0.3	94	-0.6	5	8	68	0.0	1021.0	63	0.000	0.0
20110228 08:30	0.3	-1.8	0.3	94	-0.5	6	11	68	0.0	1021.0	55	0.000	0.0
20110228 08:35	0.3	-1.8	0.3	94	-0.5	6	10	68	0.0	1021.0	49	0.000	0.0
20110228 08:40	0.4	0.4	0.4	94	-0.5	5	8	68	0.0	1021.0	45	0.000	0.0
20110228 08:45	0.4	-1.7	0.4	94	-0.4	6	11	68	0.0	1021.0	37	0.000	0.0
20110228 08:50	0.5	-2.1	0.5	94	-0.4	8	11	68	0.0	1021.1	38	0.000	0.0
20110228 08:55	0.6	0.6	0.6	94	-0.3	5	11	68	0.0	1021.0	44	0.000	0.0
20110228 09:00	0.6	-2.5	0.6	94	-0.3	10	18	68	0.0	1021.0	64	0.025	0.0
20110228 09:05	0.6	-1.5	0.6	94	-0.2	6	11	45	0.0	1021.1	75	0.000	0.0
20110228 09:10	0.7	-2.0	0.7	94	-0.2	8	14	68	0.0	1021.1	55	0.000	0.0
20110228 09:15	0.7	-1.4	0.7	94	-0.2	6	11	68	0.0	1021.2	28	0.000	0.0
20110228 09:20	0.7	-1.4	0.7	94	-0.2	6	11	68	0.0	1021.2	38	0.000	0.0
20110228 09:25	0.7	-1.3	0.7	94	-0.1	6	10	68	0.0	1021.2	58	0.000	0.0
20110228 09:30	0.8	-1.3	0.8	94	-0.1	6	11	68	0.0	1021.3	73	0.000	0.0
20110228 09:35	0.8	-1.2	0.8	94	-0.0	6	11	68	0.0	1021.1	78	0.000	0.0
20110228 09:40	0.9	0.9	0.9	94	0.1	5	10	68	0.0	1021.2	67	0.000	0.0
20110228 09:45	0.9	-1.1	0.9	94	0.1	6	11	68	0.0	1021.2	64	0.000	0.0
20110228 09:50	1.0	-1.0	1.0	94	0.1	6	14	68	0.0	1021.2	64	0.000	0.0
20110228 09:55	1.1	-1.0	1.1	94	0.2	6	14	68	0.0	1021.3	64	0.000	0.0
20110228 10:00	1.0	-2.0	1.0	94	0.1	10	16	68	0.0	1021.4	79	0.025	0.2
20110228 10:05	1.0	-1.6	1.0	94	0.1	8	16	68	0.0	1021.2	134	0.000	0.6
20110228 10:10	1.2	1.2	1.2	94	0.3	5	10	90	0.0	1021.3	127	0.000	0.7
20110228 10:15	1.3	-0.6	1.3	94	0.5	6	13	90	0.0	1021.4	149	0.000	0.7
20110228 10:20	1.3	1.3	1.3	94	0.5	5	11	68	0.0	1021.4	140	0.000	0.7
20110228 10:25	1.4	1.4	1.4	93	0.4	5	11	135	0.0	1021.5	125	0.000	0.6
20110228 10:30	1.6	1.6	1.6	93	0.5	5	14	90	0.0	1021.6	129	0.000	0.6
20110228 10:35	1.6	-0.8	1.6	93	0.6	8	14	68	0.0	1021.6	112	0.000	0.6
20110228 10:40	1.7	1.7	1.7	92	0.6	3	8	68	0.0	1021.6	87	0.000	0.5
20110228 10:45	1.7	-0.2	1.7	91	0.4	6	11	68	0.0	1021.6	103	0.000	0.6
20110228 10:50	1.8	1.8	1.8	91	0.5	5	10	90	0.0	1021.6	101	0.000	0.6
20110228 10:55	1.9	1.9	1.9	91	0.6	5	8	68	0.0	1021.6	122	0.000	0.6
20110228 11:00	2.0	2.0	2.0	90	0.5	5	10	90	0.0	1021.5	122	0.051	0.7
20110228 11:05	2.1	0.2	2.1	90	0.6	6	14	68	0.0	1021.5	149	0.000	0.8
20110228 11:10	2.2	0.3	2.2	90	0.7	6	11	90	0.0	1021.6	115	0.000	0.6
20110228 11:15	2.3	2.3	2.3	90	0.8	5	13	68	0.0	1021.6	104	0.000	0.6
20110228 11:20	2.3	0.5	2.3	89	0.7	6	11	68	0.0	1021.6	118	0.000	0.7
20110228 11:25	2.5	0.2	2.5	89	0.9	8	14	68	0.0	1021.6	159	0.000	0.9
20110228 11:30	2.7	0.9	2.7	88	0.9	6	13	90	0.0	1021.4	252	0.000	1.3
20110228 11:35	2.9	0.7	2.9	88	1.1	8	14	68	0.0	1021.4	321	0.000	1.4
20110228 11:40	2.9	-0.1	2.9	87	1.0	11	19	68	0.0	1021.4	322	0.000	1.6
20110228 11:45	3.1	0.5	3.1	86	1.0	10	19	90	0.0	1021.4	175	0.000	1.3
20110228 11:50	3.2	0.6	3.2	86	1.1	10	16	68	0.0	1021.5	141	0.000	0.8
20110228 11:55	3.2	1.0	3.2	86	1.1	8	16	68	0.0	1021.4	127	0.000	0.7
20110228 12:00	3.3	0.3	3.3	85	1.0	11	19	68	0.0	1021.4	197	0.076	1.1
20110228 12:05	3.4	0.5	3.4	85	1.1	11	21	68	0.0	1021.4	203	0.000	1.1
20110228 12:10	3.4	0.5	3.4	85	1.2	11	21	68	0.0	1021.5	-100000	0.000	0.8
20110228 12:15	3.4	0.5	3.4	84	0.9	11	23	68	0.0	1021.4	126	0.000	0.8
20110228 12:20	3.4	-0.1	3.4	84	1.0	14	24	68	0.0	1021.4	143	0.000	0.8
20110228 12:25	3.4	0.5	3.4	82	0.7	11	23	68	0.0	1021.4	143	0.000	0.8
20110228 12:30	3.6	0.7	3.6	83	0.9	11	19	68	0.0	1021.4	141	0.000	0.8
20110228 12:35	3.7	2.1	3.7	84	1.2	6	14	68	0.0	1021.3	125	0.000	0.8
20110228 12:40	3.7	1.2	3.7	83	1.1	10	21	68	0.0	1021.1	131	0.000	0.8
20110228 12:45	3.7	1.2	3.7	83	1.1	10	18	68	0.0	1021.1	118	0.000	0.8
20110228 12:50	3.7	1.6	3.7	83	1.1	8	16	90	0.0	1021.1	106	0.000	0.6
20110228 12:55	3.7	2.1	3.7	83	1.1	6	16	68	0.0	1021.1	147	0.000	0.7
20110228 13:00	3.8	0.6	3.8	83	1.2	13	19	68	0.0	1021.1	222	0.076	1.1
20110228 13:05	3.8	1.0	3.8	83	1.2	11	21	68	0.0	1021.1	219	0.000	1.2
20110228 13:10	3.9	1.4	3.9	83	1.3	10	19	68	0.0	1021.2	173	0.000	0.9
20110228 13:15	4.0	0.9	4.0	82	1.2	13	21	68	0.0	1021.2	190	0.000	1.0
20110228 13:20	4.0	0.9	4.0	82	1.2	13	19	68	0.0	1021.2	248	0.000	1.2
20110228 13:25	4.2	1.4	4.2	81	1.2	11	19	68	0.0	1021.1	226	0.000	1.0
20110228 13:30	4.2	1.4	4.2	81	1.2	11	18	68	0.0	1021.1	179	0.000	0.9
20110228 13:35	4.3	1.9	4.3	81	1.3	10	21	68	0.0	1021.3	184	0.000	0.9
20110228 13:40	4.3	1.2	4.3	80	1.1	13	21	68	0.0	1021.2	162	0.000	0.8
20110228 13:45	4.3	4.3	4.3	81	1.4	5	11	68	0.0	1021.2	144	0.000	0.8
20110228 13:50	4.4	2.9	4.4	81	1.4	6	11	68	0.0	1021.1	156	0.000	0.8
20110228 13:55	4.4	2.4	4.4	81	1.4	8	16	68	0.0	1021.1	146	0.000	0.7
20110228 14:00	4.4	2.1	4.4	81	1.5	10	16	68	0.0	1021.2	146	0.076	0.7
20110228 14:05	4.6	2.6	4.6	81	1.6	8	14	68	0.0	1021.2	180	0.000	0.8
20110228 14:10	4.7	2.8	4.7	80	1.6	8	14	68	0.0	1021.2	252	0.000	0.9
20110228 14:15	5.0	2.7	5.0	80	1.8	10	18	68	0.0	1021.1	270	0.000	1.0
20110228 14:20	4.9	2.7	4.9	79	1.6	10	18	68	0.0	1021.2	215	0.000	0.8
20110228 14:25	5.0	2.4	5.0	79	1.7	11	18	68	0.0	1021.1	246	0.000	1.0
20110228 14:30	5.2	2.9	5.2	79	1.8	10	16	68	0.0	1021.1	313	0.000	1.2
20110228 14:35	5.3	2.8	5.3	78	1.8	11	21	68	0.0	1020.9	258	0.000	1.0
20110228 14:40	5.4	2.9	5.4	77	1.7	11	21	68	0.0	1020.9	195	0.000	0.8
20110228 14:45	5.4	2.6	5.4	76	1.5	13	18	68	0.0	1020.9	166	0.000	0.7
20110228 14:50	5.4	2.9	5.4	77	1.7	11	21	68	0.0	1020.9	117	0.000	0.6
20110228 14:55	5.3	2.8	5.3	77	1.6	11	19	68	0.0	1021.0	169	0.000	0.7
20110228 15:00	5.3	2.8	5.3	77	1.6	11	19	68	0.0	1021.0	122	0.102	0.5
20110228 15:05	5.3	2.2	5.3	77	1.6	14	19	68	0.0	1021.0	107	0.000	0.5
20110228 15:10	5.3	3.1	5.3	77	1.6	10	19	68	0.0	1021.0	113	0.000	0.5
20110228 15:15	5.3	3.5	5.3	77	1.6	8	18	68	0.0	1020.9	138	0.000	0.5
20110228 15:20	5.4	2.9	5.4	76	1.6	11	21	68	0.0	1020.9	184	0.000	0.6
20110228 15:25	5.5	3.3	5.5	75	1.4	10	18	68	0.0	1020.9	168	0.000	0.5
20110228 15:30	5.6	3.4	5.6	75	1.5	10	18	68	0.0	1020.9	132	0.000	0.5
20110228 15:35	5.5	2.7	5.5	76	1.6	13	21	68	0.0	1021.0	129	0.000	0.4
20110228 15:40	5.4	2.7	5.4	76	1.6	13	21	68	0.0	1021.0	179	0.000	0.5
20110228 15:45	5.5	2.7	5.5	76	1.6	13	19	68	0.0	1021.0	206	0.000	0.5
20110228 15:50	5.6	3.1	5.6	76	1.7	11	18	68	0.0	1021.0	249	0.000	0.5
20110228 15:55	5.7	3.2	5.7	74	1.4	11	18	68	0.0	1021.0	136	0.000	0.5
20110228 16:00	5.7	3.2	5.7	75	1.6	11	18	68	0.0	1020.9	94	0.076	0.1
20110228 16:05	5.6	3.5	5.6	75	1.5	10	16	68	0.0	1021.1	99	0.000	0.0
20110228 16:10	5.6	3.4	5.6	74	1.3	10	16	68	0.0	1021.1	125	0.000	0.0
20110228 16:15	5.7	4.0	5.7	75	1.6	8	16	68	0.0	1021.1	165	0.000	0.0
20110228 16:20	5.8	4.1	5.8	74	1.6	8	14	68	0.0	1021.0	145	0.000	0.0
20110228 16:25	5.9	4.2	5.9	74	1.7	8	18	68	0.0	1020.9	115	0.000	0.0
20110228 16:30	6.0	4.3	6.0	75	1.9	8	13	68	0.0	1021.0	145	0.000	0.0
20110228 16:35	6.1	4.8	6.1	75	2.0	6	11	68	0.0	1021.0	130	0.000	0.0
20110228 16:40	6.2	4.9	6.2	73	1.7	6	10	68	0.0	1021.1	115	0.000	0.0
20110228 16:45	6.2	4.9	6.2	73	1.7	6	11	68	0.0	1021.1	103	0.000	0.0
20110228 16:50	6.2	4.6	6.2	72	1.6	8	18	68	0.0	1021.0	91	0.000	0.0
20110228 16:55	6.2	4.5	6.2	70	1.1	8	14	90	0.0	1021.1	82	0.000	0.0
20110228 17:00	6.2	4.5	6.2	70	1.1	8	14	90	0.0	1021.0	72	0.076	0.0
20110228 17:05	6.1	4.9	6.1	70	1.1	6	14	90	0.0	1021.1	59	0.000	0.0
20110228 17:10	6.0	6.0	6.0	69	0.7	5	13	90	0.0	1021.1	48	0.000	0.0
20110228 17:15	5.9	5.9	5.9	70	0.9	5	6	68	0.0	1021.1	44	0.000	0.0
20110228 17:20	5.9	5.9	5.9	70	0.8	5	10	68	0.0	1021.2	35	0.000	0.0
20110228 17:25	5.8	5.8	5.8	72	1.1	3	8	90	0.0	1021.3	27	0.000	0.0
20110228 17:30	5.6	5.6	5.6	72	1.0	3	8	90	0.0	1021.4	23	0.000	0.0
20110228 17:35	5.5	4.2	5.5	72	0.9	6	10	68	0.0	1021.5	19	0.000	0.0
20110228 17:40	5.4	5.4	5.4	72	0.8	3	8	68	0.0	1021.5	15	0.000	0.0
20110228 17:45	5.2	5.2	5.2	73	0.8	5	10	90	0.0	1021.5	11	0.000	0.0
20110228 17:50	5.1	5.1	5.1	73	0.6	3	6	90	0.0	1021.5	7	0.000	0.0
20110228 17:55	4.9	4.9	4.9	74	0.6	3	6	90	0.0	1021.6	3	0.000	0.0
20110228 18:00	4.8	4.8	4.8	74	0.5	5	8	68	0.0	1021.6	0	0.025	0.0
20110228 18:05	4.7	4.7	4.7	74	0.4	3	6	68	0.0	1021.8	0	0.000	0.0
20110228 18:10	4.5	4.5	4.5	75	0.5	3	5	68	0.0	1021.8	0	0.000	0.0
20110228 18:15	4.3	4.3	4.3	75	0.3	2	5	68	0.0	1021.8	0	0.000	0.0
20110228 18:20	4.2	4.2	4.2	75	0.1	3	5	68	0.0	1021.9	0	0.000	0.0
20110228 18:25	4.1	4.1	4.1	75	0.0	3	6	68	0.0	1022.0	0	0.000	0.0
20110228 18:30	3.9	3.9	3.9	75	-0.1	3	6	68	0.0	1022.0	0	0.000	0.0
20110228 18:35	3.8	3.8	3.8	75	-0.2	3	6	90	0.0	1022.1	0	0.000	0.0
20110228 18:40	3.7	3.7	3.7	75	-0.3	2	6	90	0.0	1022.2	0	0.000	0.0
20110228 18:45	3.6	3.6	3.6	76	-0.2	3	6	90	0.0	1022.2	0	0.000	0.0
20110228 18:50	3.4	3.4	3.4	76	-0.4	5	6	90	0.0	1022.2	0	0.000	0.0
20110228 18:55	3.3	3.3	3.3	77	-0.3	5	6	90	0.0	1022.2	0	0.000	0.0
20110228 19:00	3.2	3.2	3.2	77	-0.4	5	6	90	0.0	1022.2	0	0.000	0.0
20110228 19:05	3.2	3.2	3.2	77	-0.5	2	5	90	0.0	1022.3	0	0.000	0.0
20110228 19:10	3.1	3.1	3.1	78	-0.4	2	5	90	0.0	1022.3	0	0.000	0.0
20110228 19:15	2.9	2.9	2.9	78	-0.6	2	5	90	0.0	1022.4	0	0.000	0.0
20110228 19:20	2.8	2.8	2.8	79	-0.5	3	6	90	0.0	1022.4	0	0.000	0.0
20110228 19:25	2.7	2.7	2.7	79	-0.6	5	6	90	0.0	1022.5	0	0.000	0.0
20110228 19:30	2.7	2.7	2.7	80	-0.4	5	8	90	0.0	1022.5	0	0.000	0.0
20110228 19:35	2.7	2.7	2.7	80	-0.4	5	6	68	0.0	1022.6	0	0.000	0.0
20110228 19:40	2.6	2.6	2.6	80	-0.5	5	6	68	0.0	1022.6	0	0.000	0.0
20110228 19:45	2.5	2.5	2.5	80	-0.6	3	6	68	0.0	1022.5	0	0.000	0.0
20110228 19:50	2.4	2.4	2.4	81	-0.5	5	6	68	0.0	1022.6	0	0.000	0.0
20110228 19:55	2.3	2.3	2.3	81	-0.6	5	6	68	0.0	1022.5	0	0.000	0.0
20110228 20:00	2.2	2.2	2.2	82	-0.5	5	8	68	0.0	1022.5	0	0.025	0.0
20110228 20:05	2.1	2.1	2.1	82	-0.6	3	6	68	0.0	1022.6	0	0.000	0.0
20110228 20:10	2.0	2.0	2.0	83	-0.6	3	6	68	0.0	1022.6	0	0.000	0.0
20110228 20:15	1.9	1.9	1.9	83	-0.7	3	6	68	0.0	1022.7	0	0.000	0.0
20110228 20:20	1.8	1.8	1.8	83	-0.7	3	6	68	0.0	1022.7	0	0.000	0.0
20110228 20:25	1.8	1.8	1.8	84	-0.6	3	6	68	0.0	1022.8	0	0.000	0.0
20110228 20:30	1.8	1.8	1.8	84	-0.6	5	6	45	0.0	1022.8	0	0.000	0.0
20110228 20:35	1.7	1.7	1.7	84	-0.7	3	6	45	0.0	1022.9	0	0.000	0.0
20110228 20:40	1.7	1.7	1.7	84	-0.7	3	6	45	0.0	1022.9	0	0.000	0.0
20110228 20:45	1.6	1.6	1.6	84	-0.8	3	6	45	0.0	1023.0	0	0.000	0.0
20110228 20:50	1.6	1.6	1.6	85	-0.6	3	6	45	0.0	1023.0	0	0.000	0.0
20110228 20:55	1.6	1.6	1.6	85	-0.6	3	5	45	0.0	1023.1	0	0.000	0.0
20110228 21:00	1.6	1.6	1.6	85	-0.7	3	5	45	0.0	1023.1	0	0.000	0.0
20110228 21:05	1.4	1.4	1.4	85	-0.9	3	5	45	0.0	1023.1	0	0.000	0.0
20110228 21:10	1.3	1.3	1.3	85	-0.9	3	5	45	0.0	1023.2	0	0.000	0.0
20110228 21:15	1.3	1.3	1.3	85	-0.9	3	5	45	0.0	1023.1	0	0.000	0.0
20110228 21:20	1.3	1.3	1.3	86	-0.7	2	5	45	0.0	1023.3	0	0.000	0.0
20110228 21:25	1.3	1.3	1.3	86	-0.7	2	5	45	0.0	1023.3	0	0.000	0.0
20110228 21:30	1.3	1.3	1.3	86	-0.7	3	6	45	0.0	1023.3	0	0.000	0.0
20110228 21:35	1.3	1.3	1.3	86	-0.7	3	6	45	0.0	1023.3	0	0.000	0.0
20110228 21:40	1.3	1.3	1.3	86	-0.8	3	6	45	0.0	1023.3	0	0.000	0.0
20110228 21:45	1.2	1.2	1.2	86	-0.9	3	6	45	0.0	1023.3	0	0.000	0.0
20110228 21:50	1.2	1.2	1.2	87	-0.7	5	8	45	0.0	1023.3	0	0.000	0.0
20110228 21:55	1.2	1.2	1.2	87	-0.7	5	6	45	0.0	1023.4	0	0.000	0.0
20110228 22:00	1.2	1.2	1.2	87	-0.7	5	10	45	0.0	1023.4	0	0.000	0.0
20110228 22:05	1.1	1.1	1.1	87	-0.8	5	8	45	0.0	1023.3	0	0.000	0.0
20110228 22:10	1.1	-1.0	1.1	87	-0.9	6	11	68	0.0	1023.3	0	0.000	0.0
20110228 22:15	1.0	-1.0	1.0	87	-0.9	6	8	68	0.0	1023.3	0	0.000	0.0
20110228 22:20	1.0	1.0	1.0	87	-0.9	5	10	68	0.0	1023.3	0	0.000	0.0
20110228 22:25	1.1	1.1	1.1	87	-0.9	3	8	68	0.0	1023.4	0	0.000	0.0
20110228 22:30	1.1	1.1	1.1	87	-0.9	3	10	68	0.0	1023.5	0	0.000	0.0
20110228 22:35	1.2	-1.4	1.2	87	-0.8	8	11	68	0.0	1023.5	0	0.000	0.0
20110228 22:40	1.2	-0.8	1.2	86	-0.9	6	10	68	0.0	1023.4	0	0.000	0.0
20110228 22:45	1.1	-0.9	1.1	86	-1.0	6	10	68	0.0	1023.5	0	0.000	0.0
20110228 22:50	1.1	1.1	1.1	86	-1.0	5	6	68	0.0	1023.5	0	0.000	0.0
20110228 22:55	1.0	1.0	1.0	86	-1.1	5	8	68	0.0	1023.5	0	0.000	0.0
20110228 23:00	0.9	0.9	0.9	86	-1.1	5	8	68	0.0	1023.5	0	0.000	0.0
20110228 23:05	0.9	0.9	0.9	86	-1.2	5	8	68	0.0	1023.4	0	0.000	0.0
20110228 23:10	0.9	0.9	0.9	86	-1.2	5	8	68	0.0	1023.6	0	0.000	0.0
20110228 23:15	0.8	0.8	0.8	86	-1.2	3	6	68	0.0	1023.5	0	0.000	0.0
20110228 23:20	0.8	0.8	0.8	86	-1.2	5	8	68	0.0	1023.5	0	0.000	0.0
20110228 23:25	0.8	0.8	0.8	86	-1.2	3	6	68	0.0	1023.6	0	0.000	0.0
20110228 23:30	0.8	0.8	0.8	86	-1.3	2	5	68	0.0	1023.7	0	0.000	0.0
20110228 23:35	0.7	0.7	0.7	86	-1.3	2	5	68	0.0	1023.8	0	0.000	0.0
20110228 23:40	0.7	0.7	0.7	86	-1.4	0	3	68	0.0	1023.8	0	0.000	0.0
20110228 23:45	0.6	0.6	0.6	86	-1.5	0	2	68	0.0	1023.8	0	0.000	0.0
20110228 23:50	0.4	0.4	0.4	86	-1.6	2	5	68	0.0	1023.9	0	0.000	0.0
20110228 23:55	0.4	0.4	0.4	86	-1.7	2	5	68	0.0	1023.9	0	0.000	0.0



Please note the license to use and transfer of this data:
http://creativecommons.org/licenses/by-nc-sa/3.0/deed.en

Bitte beachten sie die Lizenz zur Verwertung und Weitergabe der Daten:
http://creativecommons.org/licenses/by-nc-sa/3.0/deed.de

zurück zur Übersicht der Archivdaten (Monats und Tagesdaten)

Cookies helfen bei der Bereitstellung von Inhalten. Durch die Nutzung dieser Seiten erklärst du dich damit einverstanden, dass Cookies auf deinem Rechner gespeichert werden. Weitere Information